createdAt,value
2019-04-21T00:00:15.104Z,9.75
2019-04-21T00:02:44.077Z,8.93
2019-04-21T00:05:38.518Z,10.63
2019-04-21T00:08:07.477Z,9.85
2019-04-21T00:10:38.483Z,10.95
2019-04-21T00:12:57.388Z,10.65
2019-04-21T00:15:24.419Z,10.48
2019-04-21T00:17:51.826Z,10.78
2019-04-21T00:20:26.640Z,10.32
2019-04-21T00:23:09.180Z,10.53
2019-04-21T00:25:36.192Z,11.78
2019-04-21T00:28:09.223Z,10.58
2019-04-21T00:30:41.210Z,9.80
2019-04-21T00:33:00.205Z,11.38
2019-04-21T00:35:25.793Z,10.48
2019-04-21T00:38:15.394Z,10.88
2019-04-21T00:40:41.461Z,10.53
2019-04-21T00:43:13.673Z,11.40
2019-04-21T00:45:36.276Z,10.88
2019-04-21T00:48:20.634Z,10.50
2019-04-21T00:51:03.554Z,10.82
2019-04-21T00:53:35.756Z,10.32
2019-04-21T00:56:07.202Z,10.50
2019-04-21T00:58:36.017Z,10.75
2019-04-21T01:01:01.611Z,11.08
2019-04-21T01:03:35.487Z,11.28
2019-04-21T01:06:04.963Z,10.90
2019-04-21T01:08:40.002Z,10.72
2019-04-21T01:11:12.363Z,11.28
2019-04-21T01:13:48.291Z,10.43
2019-04-21T01:16:13.781Z,11.53
2019-04-21T01:18:42.666Z,11.25
2019-04-21T01:20:56.063Z,11.83
2019-04-21T01:23:27.643Z,12.78
2019-04-21T01:26:13.125Z,11.88
2019-04-21T01:28:47.790Z,11.83
2019-04-21T01:31:17.116Z,12.00
2019-04-21T01:33:50.778Z,12.70
2019-04-21T01:36:14.657Z,12.65
2019-04-21T01:38:59.278Z,12.65
2019-04-21T01:41:28.018Z,12.35
2019-04-21T01:43:51.087Z,12.00
2019-04-21T01:46:19.611Z,12.50
2019-04-21T01:48:53.570Z,11.20
2019-04-21T01:51:23.532Z,12.20
2019-04-21T01:54:07.651Z,12.80
2019-04-21T01:56:34.039Z,12.80
2019-04-21T01:58:53.819Z,12.15
2019-04-21T02:01:33.647Z,11.85
2019-04-21T02:04:11.719Z,12.00
2019-04-21T02:06:39.178Z,11.38
2019-04-21T02:09:05.107Z,12.47
2019-04-21T02:11:43.418Z,11.50
2019-04-21T02:14:11.834Z,11.35
2019-04-21T02:16:40.437Z,12.20
2019-04-21T02:19:08.378Z,10.72
2019-04-21T02:21:36.676Z,11.10
2019-04-21T02:24:35.154Z,11.08
2019-04-21T02:26:41.215Z,12.78
2019-04-21T02:29:18.999Z,11.60
2019-04-21T02:32:00.388Z,11.20
2019-04-21T02:34:40.911Z,12.03
2019-04-21T02:37:07.406Z,12.23
2019-04-21T02:39:32.742Z,11.48
2019-04-21T02:44:32.732Z,12.63
2019-04-21T02:46:46.396Z,12.60
2019-04-21T02:49:45.612Z,12.60
2019-04-21T02:52:11.562Z,12.30
2019-04-21T02:54:49.701Z,13.40
2019-04-21T02:57:08.615Z,11.97
2019-04-21T02:59:49.685Z,12.15
2019-04-21T03:02:24.946Z,12.33
2019-04-21T03:04:53.134Z,12.35
2019-04-21T03:12:24.613Z,11.50
2019-04-21T03:15:06.223Z,12.53
2019-04-21T03:17:51.517Z,12.60
2019-04-21T03:20:02.893Z,12.70
2019-04-21T03:30:26.217Z,12.75
2019-04-21T03:37:39.872Z,13.15
2019-04-21T03:40:07.957Z,13.38
2019-04-21T03:42:42.398Z,13.03
2019-04-21T03:47:34.591Z,13.05
2019-04-21T03:50:16.309Z,13.28
2019-04-21T03:55:51.463Z,13.93
2019-04-21T04:05:55.572Z,13.65
2019-04-21T04:13:53.406Z,13.08
2019-04-21T04:16:08.314Z,13.55
2019-04-21T04:18:46.686Z,12.78
2019-04-21T04:21:13.090Z,13.10
2019-04-21T04:23:55.471Z,12.68
2019-04-21T04:26:09.251Z,13.93
2019-04-21T04:31:15.358Z,13.30
2019-04-21T04:36:33.971Z,13.22
2019-04-21T04:43:59.030Z,12.88
2019-04-21T04:46:23.763Z,13.70
2019-04-21T04:48:51.391Z,12.78
2019-04-21T04:51:22.956Z,13.60
2019-04-21T04:53:48.833Z,12.25
2019-04-21T04:56:20.578Z,13.65
2019-04-21T04:59:23.252Z,11.88
2019-04-21T05:01:32.629Z,13.83
2019-04-21T05:09:02.866Z,13.28
2019-04-21T05:16:36.999Z,13.43
2019-04-21T05:19:06.057Z,13.95
2019-04-21T05:23:48.415Z,10.43
2019-04-21T05:26:13.546Z,11.08
2019-04-21T05:28:41.934Z,11.93
2019-04-21T05:31:38.622Z,9.53
2019-04-21T05:34:09.738Z,8.43
2019-04-21T05:36:40.785Z,8.75
2019-04-21T05:39:08.936Z,7.87
2019-04-21T05:41:32.388Z,9.45
2019-04-21T05:44:09.873Z,8.08
2019-04-21T05:46:49.480Z,8.70
2019-04-21T05:51:55.690Z,8.18
2019-04-21T05:54:39.225Z,7.95
2019-04-21T05:56:59.886Z,7.47
2019-04-21T05:59:35.813Z,7.53
2019-04-21T06:02:19.140Z,8.00
2019-04-21T06:04:57.540Z,8.73
2019-04-21T06:07:20.068Z,8.70
2019-04-21T06:09:54.149Z,7.78
2019-04-21T06:12:10.025Z,8.60
2019-04-21T06:14:52.081Z,8.43
2019-04-21T06:17:22.535Z,8.13
2019-04-21T06:19:52.751Z,8.30
2019-04-21T06:22:14.843Z,7.87
2019-04-21T06:25:06.899Z,7.58
2019-04-21T06:27:21.039Z,8.25
2019-04-21T06:29:50.183Z,7.42
2019-04-21T06:35:08.313Z,8.03
2019-04-21T06:37:39.667Z,8.55
2019-04-21T06:40:12.717Z,7.42
2019-04-21T06:42:23.939Z,8.15
2019-04-21T06:44:57.627Z,6.87
2019-04-21T06:47:33.519Z,7.67
2019-04-21T06:49:56.844Z,7.12
2019-04-21T06:55:03.299Z,7.22
2019-04-21T06:57:29.217Z,6.55
2019-04-21T06:59:55.506Z,7.53
2019-04-21T07:05:00.538Z,6.97
2019-04-21T07:07:27.895Z,6.25
2019-04-21T07:10:09.087Z,6.05
2019-04-21T07:12:32.352Z,6.40
2019-04-21T07:14:59.455Z,5.92
2019-04-21T07:17:30.649Z,6.12
2019-04-21T07:22:31.260Z,6.62
2019-04-21T07:25:05.649Z,6.85
2019-04-21T07:27:36.563Z,5.70
2019-04-21T07:30:04.723Z,6.40
2019-04-21T07:32:33.450Z,6.25
2019-04-21T07:37:35.432Z,5.00
2019-04-21T07:40:06.551Z,4.50
2019-04-21T07:42:35.527Z,4.87
2019-04-21T07:45:04.588Z,4.80
2019-04-21T07:48:14.022Z,5.33
2019-04-21T07:50:54.476Z,4.87
2019-04-21T07:53:28.756Z,4.37
2019-04-21T07:55:36.133Z,4.92
2019-04-21T07:58:29.842Z,5.22
2019-04-21T08:03:31.918Z,4.42
2019-04-21T08:05:58.600Z,3.70
2019-04-21T08:08:26.566Z,3.80
2019-04-21T08:10:57.095Z,4.00
2019-04-21T08:13:34.557Z,3.70
2019-04-21T08:15:57.718Z,3.12
2019-04-21T08:18:33.437Z,3.77
2019-04-21T08:21:00.772Z,4.00
2019-04-21T08:23:32.882Z,3.90
2019-04-21T08:26:06.593Z,4.00
2019-04-21T08:28:35.460Z,4.00
2019-04-21T08:31:01.328Z,3.60
2019-04-21T08:33:42.799Z,3.27
2019-04-21T08:38:45.882Z,3.60
2019-04-21T08:46:13.503Z,3.02
2019-04-21T08:48:43.909Z,3.15
2019-04-21T08:53:47.586Z,3.50
2019-04-21T08:59:03.849Z,3.75
2019-04-21T09:01:36.428Z,3.10
2019-04-21T09:04:08.953Z,3.35
2019-04-21T09:09:04.655Z,2.67
2019-04-21T09:11:37.281Z,2.75
2019-04-21T09:14:07.753Z,2.95
2019-04-21T09:16:39.733Z,3.20
2019-04-21T09:19:05.366Z,2.87
2019-04-21T09:21:42.299Z,3.10
2019-04-21T09:24:11.644Z,2.72
2019-04-21T09:26:34.255Z,2.60
2019-04-21T09:29:05.860Z,3.47
2019-04-21T09:31:25.904Z,2.98
2019-04-21T09:33:56.998Z,3.22
2019-04-21T09:36:25.439Z,3.02
2019-04-21T09:39:00.054Z,3.00
2019-04-21T09:41:25.854Z,3.10
2019-04-21T09:43:56.173Z,2.87
2019-04-21T09:46:25.444Z,2.55
2019-04-21T09:49:00.878Z,3.20
2019-04-21T09:51:25.865Z,3.80
2019-04-21T09:54:01.897Z,3.12
2019-04-21T09:56:37.427Z,3.30
2019-04-21T09:59:05.545Z,3.25
2019-04-21T10:01:36.767Z,3.33
2019-04-21T10:04:00.077Z,3.60
2019-04-21T10:06:28.230Z,3.98
2019-04-21T10:09:02.733Z,3.80
2019-04-21T10:11:31.105Z,4.35
2019-04-21T10:13:58.972Z,3.62
2019-04-21T10:16:34.278Z,4.83
2019-04-21T10:19:21.808Z,4.58
2019-04-21T10:21:54.196Z,4.17
2019-04-21T10:24:24.811Z,4.60
2019-04-21T10:26:53.701Z,4.12
2019-04-21T10:29:27.374Z,4.08
2019-04-21T10:31:55.577Z,4.53
2019-04-21T10:34:25.317Z,4.20
2019-04-21T10:36:55.335Z,3.92
2019-04-21T10:39:24.590Z,4.30
2019-04-21T10:41:53.768Z,4.22
2019-04-21T10:44:23.145Z,3.98
2019-04-21T10:46:54.098Z,3.90
2019-04-21T10:49:24.369Z,3.83
2019-04-21T10:51:53.449Z,3.98
2019-04-21T10:54:22.442Z,3.83
2019-04-21T10:56:52.494Z,4.08
2019-04-21T10:59:22.626Z,3.95
2019-04-21T11:01:52.754Z,4.25
2019-04-21T11:04:29.947Z,3.50
2019-04-21T11:06:57.107Z,4.10
2019-04-21T11:09:24.472Z,3.83
2019-04-21T11:11:53.601Z,3.60
2019-04-21T11:14:23.240Z,3.60
2019-04-21T11:16:53.063Z,3.52
2019-04-21T11:19:24.100Z,3.65
2019-04-21T11:21:52.856Z,3.40
2019-04-21T11:24:23.040Z,3.25
2019-04-21T11:26:53.694Z,3.70
2019-04-21T11:29:23.430Z,3.30
2019-04-21T11:31:52.621Z,4.05
2019-04-21T11:34:22.984Z,3.67
2019-04-21T11:36:52.242Z,3.83
2019-04-21T11:39:35.223Z,3.17
2019-04-21T11:41:54.079Z,3.95
2019-04-21T11:44:24.809Z,3.40
2019-04-21T11:46:54.401Z,3.70
2019-04-21T11:49:24.242Z,3.77
2019-04-21T11:51:55.089Z,3.85
2019-04-21T11:54:24.757Z,4.35
2019-04-21T11:56:54.852Z,3.77
2019-04-21T11:59:23.926Z,3.55
2019-04-21T12:01:53.941Z,4.25
2019-04-21T12:04:23.542Z,3.87
2019-04-21T12:06:54.246Z,3.85
2019-04-21T12:09:23.125Z,4.05
2019-04-21T12:11:53.593Z,4.00
2019-04-21T12:14:23.766Z,3.95
2019-04-21T12:16:53.236Z,3.67
2019-04-21T12:19:22.904Z,3.58
2019-04-21T12:22:02.419Z,3.60
2019-04-21T12:24:22.933Z,3.83
2019-04-21T12:26:52.268Z,3.60
2019-04-21T12:29:22.703Z,3.92
2019-04-21T12:32:05.648Z,3.35
2019-04-21T12:34:36.250Z,3.40
2019-04-21T12:37:06.695Z,3.20
2019-04-21T12:39:36.921Z,3.70
2019-04-21T12:42:06.762Z,3.35
2019-04-21T12:44:37.168Z,3.65
2019-04-21T12:47:07.852Z,4.95
2019-04-21T12:49:38.089Z,3.50
2019-04-21T12:52:07.469Z,3.45
2019-04-21T12:54:37.632Z,3.35
2019-04-21T12:57:07.645Z,3.27
2019-04-21T12:59:37.836Z,3.40
2019-04-21T13:02:07.517Z,3.25
2019-04-21T13:04:37.774Z,3.25
2019-04-21T13:07:07.808Z,3.55
2019-04-21T13:09:37.565Z,2.75
2019-04-21T13:12:06.952Z,2.85
2019-04-21T13:14:36.268Z,3.22
2019-04-21T13:17:05.626Z,3.35
2019-04-21T13:19:35.703Z,2.92
2019-04-21T13:22:05.857Z,3.22
2019-04-21T13:24:35.847Z,2.90
2019-04-21T13:27:07.008Z,3.42
2019-04-21T13:29:36.433Z,3.30
2019-04-21T13:32:07.475Z,3.62
2019-04-21T13:34:36.142Z,3.75
2019-04-21T13:37:05.790Z,3.20
2019-04-21T13:40:03.384Z,3.52
2019-04-21T13:42:18.414Z,4.12
2019-04-21T13:44:39.143Z,4.53
2019-04-21T13:47:08.286Z,3.58
2019-04-21T13:49:37.395Z,3.98
2019-04-21T13:52:06.755Z,3.77
2019-04-21T13:54:35.799Z,4.42
2019-04-21T13:57:04.897Z,4.00
2019-04-21T13:59:34.266Z,3.60
2019-04-21T14:02:04.771Z,3.35
2019-04-21T14:04:33.721Z,3.70
2019-04-21T14:07:03.165Z,3.52
2019-04-21T14:09:40.419Z,3.35
2019-04-21T14:12:03.410Z,3.50
2019-04-21T14:14:32.562Z,3.20
2019-04-21T14:17:03.909Z,3.45
2019-04-21T14:19:33.123Z,3.45
2019-04-21T14:22:03.429Z,3.10
2019-04-21T14:24:32.911Z,3.22
2019-04-21T14:27:02.669Z,3.15
2019-04-21T14:29:33.385Z,3.30
2019-04-21T14:32:02.376Z,3.25
2019-04-21T14:34:32.153Z,3.25
2019-04-21T14:37:02.252Z,3.37
2019-04-21T14:39:32.465Z,3.30
2019-04-21T14:42:02.281Z,3.08
2019-04-21T14:44:33.136Z,3.30
2019-04-21T14:47:04.928Z,3.15
2019-04-21T14:49:39.400Z,3.30
2019-04-21T14:52:19.294Z,2.72
2019-04-21T14:54:50.843Z,3.70
2019-04-21T14:57:21.243Z,3.87
2019-04-21T14:59:51.091Z,3.17
2019-04-21T15:02:20.370Z,3.25
2019-04-21T15:04:49.700Z,3.27
2019-04-21T15:07:19.242Z,3.17
2019-04-21T15:10:01.641Z,2.75
2019-04-21T15:12:20.073Z,3.10
2019-04-21T15:14:49.850Z,2.75
2019-04-21T15:17:27.497Z,3.12
2019-04-21T15:19:59.746Z,3.45
2019-04-21T15:22:28.220Z,3.25
2019-04-21T15:24:58.340Z,3.40
2019-04-21T15:27:27.595Z,3.15
2019-04-21T15:29:56.909Z,3.45
2019-04-21T15:32:26.517Z,3.70
2019-04-21T15:34:56.145Z,3.80
2019-04-21T15:37:26.019Z,3.00
2019-04-21T15:39:56.290Z,3.15
2019-04-21T15:42:26.392Z,4.20
2019-04-21T15:44:56.807Z,2.90
2019-04-21T15:47:26.300Z,3.10
2019-04-21T15:50:02.962Z,3.10
2019-04-21T15:52:27.716Z,3.15
2019-04-21T15:54:59.019Z,2.95
2019-04-21T15:57:35.911Z,3.12
2019-04-21T16:00:10.857Z,3.37
2019-04-21T16:02:44.641Z,3.27
2019-04-21T16:05:15.110Z,2.92
2019-04-21T16:07:44.454Z,3.10
2019-04-21T16:10:27.901Z,3.10
2019-04-21T16:12:45.660Z,3.22
2019-04-21T16:15:16.551Z,2.80
2019-04-21T16:17:47.489Z,3.30
2019-04-21T16:20:17.746Z,3.20
2019-04-21T16:22:48.516Z,6.03
2019-04-21T16:25:18.765Z,3.33
2019-04-21T16:27:48.272Z,3.10
2019-04-21T16:30:17.649Z,3.10
2019-04-21T16:32:48.176Z,3.02
2019-04-21T16:35:18.658Z,2.83
2019-04-21T16:37:48.266Z,3.17
2019-04-21T16:40:17.645Z,3.60
2019-04-21T16:42:48.006Z,3.15
2019-04-21T16:45:18.822Z,3.00
2019-04-21T16:47:51.773Z,3.27
2019-04-21T16:50:19.469Z,3.40
2019-04-21T16:53:03.667Z,3.15
2019-04-21T16:55:51.168Z,3.85
2019-04-21T16:58:37.124Z,4.05
2019-04-21T17:03:38.349Z,3.55
2019-04-21T17:06:08.935Z,3.95
2019-04-21T17:08:38.828Z,3.45
2019-04-21T17:13:39.768Z,3.05
2019-04-21T17:16:21.018Z,3.70
2019-04-21T17:16:30.446Z,4.17
2019-04-21T17:16:36.471Z,2.70
2019-04-21T17:18:53.925Z,2.87
2019-04-21T17:21:11.136Z,10.25
2019-04-21T17:23:41.113Z,4.10
2019-04-21T17:26:10.993Z,3.37
2019-04-21T17:28:40.634Z,3.05
2019-04-21T17:31:10.852Z,3.10
2019-04-21T17:33:41.282Z,3.83
2019-04-21T17:36:11.412Z,3.08
2019-04-21T17:38:41.772Z,3.25
2019-04-21T17:41:21.621Z,3.80
2019-04-21T17:43:41.697Z,3.67
2019-04-21T17:46:20.347Z,4.33
2019-04-21T17:48:45.010Z,3.80
2019-04-21T17:51:19.234Z,3.70
2019-04-21T17:53:58.997Z,3.80
2019-04-21T17:56:53.845Z,4.50
2019-04-21T17:59:17.777Z,4.28
2019-04-21T18:01:47.456Z,4.53
2019-04-21T18:04:21.207Z,4.83
2019-04-21T18:07:00.828Z,5.00
2019-04-21T18:09:45.391Z,4.55
2019-04-21T18:12:07.610Z,4.78
2019-04-21T18:14:22.285Z,6.25
2019-04-21T18:16:53.386Z,6.22
2019-04-21T18:19:27.910Z,8.00
2019-04-21T18:22:06.513Z,5.70
2019-04-21T18:24:45.938Z,5.50
2019-04-21T18:27:08.894Z,5.80
2019-04-21T18:29:36.668Z,5.42
2019-04-21T18:32:06.540Z,5.65
2019-04-21T18:34:44.011Z,5.30
2019-04-21T18:37:14.812Z,5.47
2019-04-21T18:39:53.700Z,5.03
2019-04-21T18:42:37.507Z,5.75
2019-04-21T18:45:34.563Z,6.95
2019-04-21T18:47:54.976Z,6.58
2019-04-21T18:50:41.633Z,6.92
2019-04-21T18:53:15.604Z,7.10
2019-04-21T18:55:41.053Z,6.37
2019-04-21T18:58:05.173Z,6.85
2019-04-21T19:00:37.011Z,6.53
2019-04-21T19:03:09.591Z,8.18
2019-04-21T19:05:40.495Z,6.20
2019-04-21T19:08:23.358Z,7.08
2019-04-21T19:10:56.194Z,6.40
2019-04-21T19:13:40.102Z,6.70
2019-04-21T19:16:23.960Z,6.72
2019-04-21T19:20:57.045Z,5.87
2019-04-21T19:23:41.326Z,5.72
2019-04-21T19:26:13.101Z,5.72
2019-04-21T19:28:36.144Z,6.00
2019-04-21T19:31:05.010Z,6.45
2019-04-21T19:33:30.998Z,6.22
2019-04-21T19:35:43.621Z,6.67
2019-04-21T19:38:16.185Z,7.42
2019-04-21T19:40:56.602Z,6.90
2019-04-21T19:43:35.834Z,8.20
2019-04-21T19:45:59.656Z,9.30
2019-04-21T19:48:33.286Z,8.75
2019-04-21T19:51:04.262Z,9.98
2019-04-21T19:53:34.627Z,9.13
2019-04-21T19:55:47.896Z,8.63
2019-04-21T19:58:21.963Z,8.88
2019-04-21T20:00:51.782Z,9.68
2019-04-21T20:03:18.740Z,9.73
2019-04-21T20:05:59.310Z,10.08
2019-04-21T20:08:32.852Z,9.88
2019-04-21T20:11:10.172Z,8.95
2019-04-21T20:13:52.726Z,9.85
2019-04-21T20:16:11.544Z,9.10
2019-04-21T20:18:27.462Z,9.00
2019-04-21T20:20:52.179Z,9.33
2019-04-21T20:23:27.461Z,8.45
2019-04-21T20:25:55.940Z,9.00
2019-04-21T20:28:38.818Z,8.80
2019-04-21T20:31:14.717Z,9.18
2019-04-21T20:36:16.865Z,8.03
2019-04-21T20:38:35.289Z,8.03
2019-04-21T20:41:02.232Z,7.97
2019-04-21T20:46:11.805Z,7.65
2019-04-21T20:48:42.613Z,7.55
2019-04-21T20:51:11.926Z,7.10
2019-04-21T20:53:46.544Z,8.10
2019-04-21T20:56:11.373Z,7.53
2019-04-21T20:58:48.860Z,8.78
2019-04-21T21:03:50.560Z,7.80
2019-04-21T21:06:19.552Z,8.58
2019-04-21T21:08:50.399Z,7.60
2019-04-21T21:11:21.509Z,7.58
2019-04-21T21:13:52.205Z,7.20
2019-04-21T21:16:29.209Z,7.22
2019-04-21T21:21:23.031Z,8.05
2019-04-21T21:23:55.872Z,7.15
2019-04-21T21:26:25.548Z,7.75
2019-04-21T21:28:49.835Z,7.35
2019-04-21T21:31:24.900Z,7.25
2019-04-21T21:36:26.977Z,7.03
2019-04-21T21:38:54.653Z,7.08
2019-04-21T21:41:19.970Z,6.83
2019-04-21T21:43:39.751Z,7.45
2019-04-21T21:46:27.132Z,7.65
2019-04-21T21:48:50.134Z,8.10
2019-04-21T21:51:18.687Z,9.00
2019-04-21T21:53:42.557Z,10.25
2019-04-21T21:56:11.034Z,11.70
2019-04-21T21:58:42.872Z,9.43
2019-04-21T22:01:13.922Z,8.55
2019-04-21T22:03:46.562Z,8.43
2019-04-21T22:06:19.229Z,7.70
2019-04-21T22:08:44.215Z,7.95
2019-04-21T22:11:15.846Z,8.53
2019-04-21T22:13:53.271Z,8.88
2019-04-21T22:16:18.158Z,8.23
2019-04-21T22:19:06.901Z,8.75
2019-04-21T22:21:38.547Z,8.43
2019-04-21T22:23:55.720Z,8.53
2019-04-21T22:26:19.001Z,9.00
2019-04-21T22:28:49.557Z,8.33
2019-04-21T22:31:23.581Z,8.68
2019-04-21T22:33:53.875Z,9.00
2019-04-21T22:36:33.076Z,9.68
2019-04-21T22:39:08.961Z,9.65
2019-04-21T22:41:28.941Z,10.00
2019-04-21T22:43:52.212Z,9.55
2019-04-21T22:46:22.353Z,9.15
2019-04-21T22:48:56.209Z,9.35
2019-04-21T22:51:30.549Z,9.38
2019-04-21T22:53:55.491Z,9.13
2019-04-21T22:56:29.085Z,9.48
2019-04-21T22:58:53.236Z,8.68
2019-04-21T23:01:30.066Z,8.75
2019-04-21T23:03:56.931Z,9.40
2019-04-21T23:06:27.347Z,8.98
2019-04-21T23:08:54.990Z,8.95
2019-04-21T23:11:29.381Z,9.03
2019-04-21T23:14:03.994Z,10.13
2019-04-21T23:16:31.095Z,9.68
2019-04-21T23:19:15.648Z,10.08
2019-04-21T23:21:45.823Z,10.55
2019-04-21T23:24:14.916Z,11.33
2019-04-21T23:26:41.988Z,10.30
2019-04-21T23:29:21.143Z,11.15
2019-04-21T23:31:48.318Z,10.78
2019-04-21T23:33:59.976Z,10.20
2019-04-21T23:36:32.239Z,10.00
2019-04-21T23:39:01.278Z,9.78
2019-04-21T23:41:36.066Z,10.13
2019-04-21T23:44:05.540Z,11.00
2019-04-21T23:46:35.033Z,11.83
2019-04-21T23:49:15.133Z,10.53
2019-04-21T23:51:42.049Z,10.65
2019-04-21T23:54:02.809Z,10.20
2019-04-21T23:56:42.512Z,10.03
2019-04-21T23:59:13.658Z,10.18
